Impacts METAR Board
IDs:

KFLL - Ft Lauderdale-Hollyw, FL, US

Updated at: 1200 UTC 20 May 2018
Potential Impact None Slight Moderate High
Time 20/00Z 20/01Z 20/02Z 20/03Z 20/04Z 20/05Z 20/06Z 20/07Z 20/08Z 20/09Z 20/10Z 20/11Z 20/12Z
Temp72 73 73 74 75 74 75 75 76 76 74 72 74
Dewpt72 72 72 74 75 74 75 75 76 75 74 72 74
Altim30.05 30.05 30.06 30.07 30.07 30.05 30.02 30.01 30.00 30.00 30.04 30.05 30.06
VIS9 9 10 10 10 10 10 10 10 10 8 1.25 4
CIG110 95 75 25 25 50 100 17 42 50 23 9 16
CoverOVCOVCBKNBKNOVCBKNBKNOVCBKNBKNOVCOVCOVC
FltCatVFRVFRVFRMVFRMVFRVFRVFRMVFRVFRVFRMVFRIFRMVFR
WX-RA-RA---------RA-RA----RA+RA BRRA BR
WDir12015009090110110150120130170140180
WSpd8 6 0 9 6 8 7 6 12 12 10 11 7
WGst-- -- -- -- -- -- -- -- -- -- -- 30 --
Raw hourly METARs
KFLL 192353Z 12008KT 9SM -RA FEW015 FEW040 BKN110 OVC140 22/22 A3005 RMK AO2 SLP175 P0014 60034 T02220222 10250 20217 53005 $
KFLL 200053Z 15006KT 9SM -RA FEW020 BKN095 OVC110 23/22 A3005 RMK AO2 RAE2357B27 SLP177 P0001 T02280222 $
KFLL 200153Z 00000KT 10SM R10L/2800VP6000FT FEW023 BKN075 BKN120 23/22 A3006 RMK AO2 RAE23 SLP177 P0001 T02280222 $
KFLL 200253Z 09009KT 10SM FEW015 BKN025 BKN050 23/23 A3007 RMK AO2 SLP182 60002 T02330233 53007 $
KFLL 200353Z 09006KT 10SM BKN025 OVC070 24/24 A3007 RMK AO2 RAB23E32 SLP181 P0000 T02390239 $
KFLL 200453Z 11008KT 10SM SCT034 BKN050 BKN110 23/23 A3005 RMK AO2 RAB06E33 SLP176 P0001 T02330233 402560217 $
KFLL 200553Z 11007KT 10SM -RA SCT028 SCT045 BKN100 24/24 A3002 RMK AO2 RAB25 SLP165 P0001 60004 T02390239 10239 20222 58017 $
KFLL 200653Z 15006KT 10SM -RA BKN017 BKN028 OVC080 24/24 A3001 RMK AO2 LTG DSNT SW RAE0558B30 SLP161 P0009 T02390239 $
KFLL 200753Z 12012KT 10SM FEW023 SCT034 BKN042 24/24 A3000 RMK AO2 RAE45 SLP158 P0028 T02440244 $
KFLL 200853Z 13012KT 10SM FEW023 SCT035 BKN050 24/24 A3000 RMK AO2 SLP159 60037 T02440239 55007 $
KFLL 200953Z 17010KT 140V200 8SM RA FEW013 BKN023 OVC045 23/23 A3004 RMK AO2 PK WND 12038/0908 LTG DSNT W AND NW RAB08 TSE21 PRESRR SLP171 P0050 T02330233 $
KFLL 201053Z 14011G30KT 1 1/4SM R10L/1200V3500FT +RA BR OVC009 22/22 A3005 RMK AO2 PK WND 15030/1045 SLP177 P0265 T02220222 $
KFLL 201200Z 18007KT 4SM R10L/3500VP6000FT RA BR SCT009 BKN016 OVC036 23/23 A3006 RMK AO2 P0006 T02330233 $



Page loaded:  12:08 UTC  |   05:08 AM Pacific  |   06:08 AM Mountain  |   07:08 AM Central  |   08:08 AM Eastern

 

ADVISORIES

FORECASTS

FORECASTS

OBSERVATIONS

USER TOOLS

ABOUT US